createdAt,value
2018-05-17T00:01:56.265Z,69.70
2018-05-17T00:05:58.935Z,69.70
2018-05-17T00:10:01.575Z,69.10
2018-05-17T00:14:04.211Z,68.70
2018-05-17T00:18:07.618Z,69.20
2018-05-17T00:22:10.222Z,69.10
2018-05-17T00:26:13.636Z,68.70
2018-05-17T00:30:16.301Z,68.70
2018-05-17T00:34:18.941Z,68.10
2018-05-17T00:38:21.636Z,68.50
2018-05-17T00:42:24.299Z,69.00
2018-05-17T00:46:26.935Z,69.60
2018-05-17T00:50:30.348Z,70.00
2018-05-17T00:54:33.813Z,71.30
2018-05-17T00:58:36.452Z,71.30
2018-05-17T01:02:39.065Z,70.00
2018-05-17T01:06:41.713Z,70.00
2018-05-17T01:10:45.114Z,70.40
2018-05-17T01:14:47.765Z,70.30
2018-05-17T01:18:50.481Z,70.00
2018-05-17T01:22:53.129Z,71.20
2018-05-17T01:26:55.776Z,71.00
2018-05-17T01:30:59.181Z,70.60
2018-05-17T01:35:02.672Z,70.40
2018-05-17T01:39:05.317Z,70.30
2018-05-17T01:43:07.963Z,68.80
2018-05-17T01:47:10.613Z,70.40
2018-05-17T01:51:13.288Z,70.80
2018-05-17T01:55:15.928Z,69.40
2018-05-17T01:59:19.308Z,70.90
2018-05-17T02:03:22.762Z,69.20
2018-05-17T02:07:25.403Z,69.10
2018-05-17T02:11:28.053Z,69.80
2018-05-17T02:15:30.949Z,70.00
2018-05-17T02:19:33.561Z,70.40
2018-05-17T02:23:36.206Z,70.20
2018-05-17T02:27:38.875Z,70.80
2018-05-17T02:31:41.509Z,70.40
2018-05-17T02:35:44.159Z,69.80
2018-05-17T02:39:47.539Z,71.00
2018-05-17T02:43:50.180Z,70.90
2018-05-17T02:47:52.828Z,70.90
2018-05-17T02:51:55.482Z,70.30
2018-05-17T02:55:58.116Z,70.20
2018-05-17T03:00:01.549Z,69.60
2018-05-17T03:04:04.210Z,69.60
2018-05-17T03:08:07.679Z,71.00
2018-05-17T03:12:10.335Z,71.00
2018-05-17T03:16:12.984Z,70.70
2018-05-17T03:20:15.643Z,70.30
2018-05-17T03:24:18.283Z,70.60
2018-05-17T03:28:21.696Z,70.00
2018-05-17T03:32:24.336Z,70.00
2018-05-17T03:36:26.983Z,70.20
2018-05-17T03:40:29.588Z,69.70
2018-05-17T03:44:32.239Z,69.70
2018-05-17T03:48:35.648Z,70.10
2018-05-17T03:52:39.064Z,70.90
2018-05-17T03:56:41.796Z,70.00
2018-05-17T04:00:56.232Z,69.00
2018-05-17T04:05:10.760Z,69.70
2018-05-17T04:09:13.384Z,68.80
2018-05-17T04:13:16.027Z,69.40
2018-05-17T04:17:18.673Z,68.60
2018-05-17T04:21:21.275Z,69.10
2018-05-17T04:25:23.920Z,69.40
2018-05-17T04:29:27.328Z,69.50
2018-05-17T04:33:29.969Z,69.40
2018-05-17T04:37:32.671Z,69.30
2018-05-17T04:41:35.275Z,69.70
2018-05-17T04:45:38.683Z,69.60
2018-05-17T04:49:42.092Z,68.70
2018-05-17T04:53:45.503Z,69.30
2018-05-17T04:57:48.964Z,69.10
2018-05-17T05:01:51.577Z,69.00
2018-05-17T05:05:54.220Z,69.30
2018-05-17T05:09:56.867Z,68.60
2018-05-17T05:14:00.272Z,68.60
2018-05-17T05:18:02.953Z,68.50
2018-05-17T05:22:05.628Z,68.50
2018-05-17T05:26:08.335Z,69.70
2018-05-17T05:30:11.032Z,68.60
2018-05-17T05:34:14.466Z,68.90
2018-05-17T05:38:17.110Z,68.80
2018-05-17T05:42:19.722Z,69.70
2018-05-17T05:46:23.153Z,69.00
2018-05-17T05:50:25.815Z,68.80
2018-05-17T05:54:29.228Z,69.10
2018-05-17T05:58:32.641Z,69.30
2018-05-17T06:02:35.309Z,69.10
2018-05-17T06:06:38.720Z,68.00
2018-05-17T06:10:42.133Z,69.00
2018-05-17T06:14:45.536Z,68.70
2018-05-17T06:18:48.947Z,68.40
2018-05-17T06:22:52.320Z,68.00
2018-05-17T06:26:54.976Z,68.00
2018-05-17T06:30:57.625Z,68.60
2018-05-17T06:35:01.036Z,69.00
2018-05-17T06:39:05.273Z,68.30
2018-05-17T06:43:07.937Z,68.60
2018-05-17T06:47:11.353Z,68.80
2018-05-17T06:51:14.764Z,69.00
2018-05-17T06:55:18.175Z,68.60
2018-05-17T06:59:20.816Z,68.50
2018-05-17T07:03:23.434Z,68.40
2018-05-17T07:07:26.845Z,68.20
2018-05-17T07:11:30.243Z,68.30
2018-05-17T07:15:33.704Z,68.30
2018-05-17T07:19:36.386Z,67.30
2018-05-17T07:23:39.054Z,67.40
2018-05-17T07:27:41.696Z,67.70
2018-05-17T07:31:44.374Z,67.60
2018-05-17T07:35:47.020Z,67.60
2018-05-17T07:39:49.664Z,67.50
2018-05-17T07:43:52.280Z,67.90
2018-05-17T07:47:55.698Z,67.90
2018-05-17T07:51:58.403Z,67.10
2018-05-17T07:56:01.050Z,67.20
2018-05-17T08:00:04.462Z,67.20
2018-05-17T08:04:07.839Z,66.60
2018-05-17T08:08:11.288Z,66.70
2018-05-17T08:12:13.932Z,66.00
2018-05-17T08:16:16.588Z,66.60
2018-05-17T08:20:19.234Z,66.50
2018-05-17T08:28:29.710Z,67.30
2018-05-17T08:32:32.352Z,66.70
2018-05-17T08:36:35.130Z,65.90
2018-05-17T08:40:37.696Z,65.20
2018-05-17T08:44:40.318Z,64.80
2018-05-17T08:48:42.988Z,64.30
2018-05-17T08:52:46.421Z,63.70
2018-05-17T08:56:49.084Z,63.00
2018-05-17T09:00:52.546Z,62.60
2018-05-17T09:04:55.191Z,62.50
2018-05-17T09:08:58.598Z,62.50
2018-05-17T09:13:01.235Z,61.80
2018-05-17T09:17:03.880Z,63.40
2018-05-17T09:21:07.389Z,62.40
2018-05-17T09:25:10.099Z,61.70
2018-05-17T09:29:12.775Z,61.80
2018-05-17T09:33:15.419Z,62.10
2018-05-17T09:37:18.071Z,62.30
2018-05-17T09:41:20.822Z,61.90
2018-05-17T09:45:23.467Z,61.70
2018-05-17T09:49:26.107Z,61.40
2018-05-17T09:53:29.516Z,61.10
2018-05-17T09:57:32.156Z,61.00
2018-05-17T10:01:34.776Z,61.50
2018-05-17T10:05:38.187Z,61.60
2018-05-17T10:09:41.593Z,61.50
2018-05-17T10:13:45.009Z,61.20
2018-05-17T10:17:48.412Z,61.00
2018-05-17T10:21:51.904Z,61.30
2018-05-17T10:25:54.626Z,61.20
2018-05-17T10:29:57.285Z,58.90
2018-05-17T10:33:59.920Z,58.00
2018-05-17T10:38:02.541Z,58.90
2018-05-17T10:42:05.275Z,59.40
2018-05-17T10:46:08.660Z,60.20
2018-05-17T10:50:12.062Z,59.80
2018-05-17T10:54:14.711Z,59.70
2018-05-17T10:58:17.320Z,59.80
2018-05-17T11:02:19.968Z,60.10
2018-05-17T11:06:22.612Z,59.50
2018-05-17T11:10:25.257Z,58.90
2018-05-17T11:14:28.008Z,58.80
2018-05-17T11:18:31.395Z,58.90
2018-05-17T11:22:34.089Z,58.90
2018-05-17T11:26:36.733Z,58.80
2018-05-17T11:30:39.423Z,57.40
2018-05-17T11:34:42.031Z,58.30
2018-05-17T11:38:44.679Z,58.20
2018-05-17T11:42:47.319Z,58.80
2018-05-17T11:46:49.981Z,57.40
2018-05-17T11:50:52.627Z,58.00
2018-05-17T11:54:56.052Z,58.00
2018-05-17T11:58:58.695Z,57.90
2018-05-17T12:03:02.065Z,58.30
2018-05-17T12:07:04.716Z,58.10
2018-05-17T12:11:08.120Z,58.20
2018-05-17T12:15:11.496Z,56.80
2018-05-17T12:19:14.136Z,56.80
2018-05-17T12:23:16.770Z,56.70
2018-05-17T12:27:19.417Z,56.30
2018-05-17T12:31:22.061Z,56.40
2018-05-17T12:35:24.715Z,56.20
2018-05-17T12:39:27.364Z,55.90
2018-05-17T12:43:30.007Z,55.90
2018-05-17T12:47:32.675Z,56.10
2018-05-17T12:51:35.345Z,55.70
2018-05-17T12:55:37.983Z,54.40
2018-05-17T12:59:40.640Z,54.10
2018-05-17T13:03:43.341Z,55.30
2018-05-17T13:07:46.001Z,55.80
2018-05-17T13:11:48.616Z,55.00
2018-05-17T13:15:51.280Z,54.40
2018-05-17T13:19:53.929Z,53.00
2018-05-17T13:23:57.339Z,54.20
2018-05-17T13:28:00.763Z,54.90
2018-05-17T13:32:03.379Z,54.80
2018-05-17T13:36:06.788Z,53.90
2018-05-17T13:40:09.473Z,53.90
2018-05-17T13:44:12.125Z,53.70
2018-05-17T13:48:15.537Z,54.10
2018-05-17T13:52:18.144Z,54.00
2018-05-17T13:56:20.791Z,54.30
2018-05-17T14:00:23.672Z,54.10
2018-05-17T14:04:26.323Z,54.30
2018-05-17T14:08:28.985Z,54.30
2018-05-17T14:12:31.600Z,55.40
2018-05-17T14:16:34.243Z,55.50
2018-05-17T14:20:36.927Z,54.80
2018-05-17T14:24:39.588Z,54.90
2018-05-17T14:28:42.204Z,55.80
2018-05-17T14:32:45.607Z,56.40
2018-05-17T14:36:48.306Z,56.30
2018-05-17T14:40:51.712Z,56.30
2018-05-17T14:44:55.116Z,56.50
2018-05-17T14:48:58.485Z,57.00
2018-05-17T14:53:01.130Z,56.90
2018-05-17T14:57:03.768Z,57.00
2018-05-17T15:01:06.488Z,57.10
2018-05-17T15:05:09.096Z,57.50
2018-05-17T15:09:11.715Z,57.80
2018-05-17T15:13:14.372Z,58.00
2018-05-17T15:17:17.014Z,58.50
2018-05-17T15:21:20.460Z,58.90
2018-05-17T15:25:23.100Z,58.90
2018-05-17T15:29:25.708Z,58.90
2018-05-17T15:33:28.357Z,58.60
2018-05-17T15:37:31.000Z,59.00
2018-05-17T15:41:34.471Z,59.10
2018-05-17T15:45:37.100Z,59.00
2018-05-17T15:49:40.476Z,59.20
2018-05-17T15:53:43.124Z,59.20
2018-05-17T15:57:45.757Z,59.10
2018-05-17T16:01:48.408Z,59.10
2018-05-17T16:05:51.076Z,59.20
2018-05-17T16:09:53.694Z,59.40
2018-05-17T16:13:56.337Z,59.40
2018-05-17T16:17:59.066Z,60.30
2018-05-17T16:22:01.705Z,59.80
2018-05-17T16:26:05.146Z,59.70
2018-05-17T16:30:07.787Z,59.70
2018-05-17T16:34:10.488Z,59.80
2018-05-17T16:38:13.899Z,59.90
2018-05-17T16:42:17.315Z,59.90
2018-05-17T16:46:20.735Z,59.90
2018-05-17T16:50:23.396Z,59.90
2018-05-17T16:54:26.837Z,60.40
2018-05-17T16:58:29.513Z,60.30
2018-05-17T17:02:32.137Z,61.00
2018-05-17T17:06:34.784Z,60.70
2018-05-17T17:10:37.433Z,61.50
2018-05-17T17:14:40.080Z,61.00
2018-05-17T17:18:42.781Z,61.80
2018-05-17T17:22:45.439Z,61.80
2018-05-17T17:26:48.092Z,62.00
2018-05-17T17:30:50.754Z,62.00
2018-05-17T17:34:53.395Z,62.40
2018-05-17T17:38:56.803Z,63.40
2018-05-17T17:43:00.238Z,62.60
2018-05-17T17:47:02.886Z,62.60
2018-05-17T17:51:05.565Z,63.00
2018-05-17T17:55:08.268Z,62.60
2018-05-17T17:59:11.736Z,63.60
2018-05-17T18:03:14.343Z,63.00
2018-05-17T18:07:16.991Z,62.40
2018-05-17T18:11:19.623Z,63.00
2018-05-17T18:15:22.268Z,63.20
2018-05-17T18:19:24.885Z,63.50
2018-05-17T18:23:27.588Z,63.60
2018-05-17T18:27:30.244Z,62.70
2018-05-17T18:31:32.883Z,63.30
2018-05-17T18:35:36.297Z,62.70
2018-05-17T18:39:39.666Z,63.30
2018-05-17T18:43:42.314Z,63.20
2018-05-17T18:47:44.966Z,63.70
2018-05-17T18:51:47.615Z,63.60
2018-05-17T18:55:50.270Z,63.00
2018-05-17T18:59:52.875Z,63.50
2018-05-17T19:03:55.503Z,63.50
2018-05-17T19:07:58.144Z,63.70
2018-05-17T19:12:00.784Z,63.40
2018-05-17T19:16:03.441Z,63.20
2018-05-17T19:20:06.136Z,63.60
2018-05-17T19:24:08.770Z,63.50
2018-05-17T19:28:12.182Z,63.90
2018-05-17T19:32:14.870Z,63.90
2018-05-17T19:36:17.512Z,63.30
2018-05-17T19:40:20.162Z,64.20
2018-05-17T19:44:22.804Z,64.00
2018-05-17T19:48:25.448Z,64.30
2018-05-17T19:52:28.150Z,63.60
2018-05-17T19:56:30.763Z,63.80
2018-05-17T20:00:33.402Z,64.00
2018-05-17T20:04:36.042Z,63.90
2018-05-17T20:08:38.680Z,64.10
2018-05-17T20:12:41.341Z,64.10
2018-05-17T20:16:44.716Z,65.10
2018-05-17T20:20:48.151Z,64.70
2018-05-17T20:24:50.799Z,64.60
2018-05-17T20:28:53.461Z,64.90
2018-05-17T20:32:56.116Z,65.10
2018-05-17T20:36:58.761Z,65.30
2018-05-17T20:41:01.401Z,66.00
2018-05-17T20:45:04.860Z,65.90
2018-05-17T20:49:07.541Z,65.80
2018-05-17T20:53:10.148Z,65.40
2018-05-17T20:57:12.795Z,66.50
2018-05-17T21:01:15.494Z,66.20
2018-05-17T21:05:18.184Z,67.20
2018-05-17T21:09:20.981Z,67.30
2018-05-17T21:13:23.693Z,67.10
2018-05-17T21:17:26.341Z,66.10
2018-05-17T21:21:28.972Z,67.00
2018-05-17T21:25:31.617Z,66.90
2018-05-17T21:29:34.256Z,66.50
2018-05-17T21:33:37.655Z,66.70
2018-05-17T21:37:40.344Z,66.60
2018-05-17T21:41:43.021Z,65.50
2018-05-17T21:45:45.720Z,66.50
2018-05-17T21:49:48.362Z,66.90
2018-05-17T21:53:51.796Z,66.20
2018-05-17T21:57:54.440Z,66.20
2018-05-17T22:01:57.849Z,66.00
2018-05-17T22:06:01.261Z,66.20
2018-05-17T22:10:04.626Z,66.70
2018-05-17T22:14:07.267Z,66.70
2018-05-17T22:18:09.913Z,66.30
2018-05-17T22:22:12.652Z,66.50
2018-05-17T22:26:15.314Z,66.20
2018-05-17T22:30:18.801Z,67.40
2018-05-17T22:34:21.457Z,67.20
2018-05-17T22:38:24.101Z,67.60
2018-05-17T22:42:27.509Z,67.10
2018-05-17T22:46:30.976Z,67.30
2018-05-17T22:50:35.200Z,67.60
2018-05-17T22:54:37.846Z,67.50
2018-05-17T22:58:40.484Z,66.70
2018-05-17T23:02:43.146Z,67.40
2018-05-17T23:06:45.752Z,67.50
2018-05-17T23:10:48.444Z,66.90
2018-05-17T23:14:51.090Z,67.30
2018-05-17T23:18:53.736Z,66.60
2018-05-17T23:22:56.381Z,67.30
2018-05-17T23:26:58.994Z,66.80
2018-05-17T23:31:01.642Z,67.20
2018-05-17T23:35:04.275Z,67.90
2018-05-17T23:39:06.973Z,68.00
2018-05-17T23:43:09.620Z,68.60
2018-05-17T23:47:12.223Z,68.10
2018-05-17T23:51:14.920Z,67.10
2018-05-17T23:55:17.611Z,68.20
2018-05-17T23:59:20.253Z,66.70
